createdAt,value
2023-03-05T00:01:40.604Z,96530.78
2023-03-05T00:04:13.060Z,96530.91
2023-03-05T00:06:41.689Z,96519.59
2023-03-05T00:09:11.463Z,96520.06
2023-03-05T00:11:45.327Z,96515.94
2023-03-05T00:14:14.119Z,96516.16
2023-03-05T00:16:42.463Z,96513.69
2023-03-05T00:19:11.747Z,96517.22
2023-03-05T00:21:41.790Z,96510.09
2023-03-05T00:24:14.409Z,96506.66
2023-03-05T00:26:42.741Z,96498.81
2023-03-05T00:29:12.401Z,96500.81
2023-03-05T00:31:40.959Z,96493.81
2023-03-05T00:34:12.317Z,96492.88
2023-03-05T00:36:42.307Z,96487.75
2023-03-05T00:39:12.750Z,96486.81
2023-03-05T00:41:41.104Z,96485.84
2023-03-05T00:44:09.469Z,96485.63
2023-03-05T00:46:38.291Z,96476.59
2023-03-05T00:49:07.143Z,96472.09
2023-03-05T00:51:35.792Z,96476.59
2023-03-05T00:54:04.633Z,96463.88
2023-03-05T00:56:34.707Z,96465.44
2023-03-05T00:59:03.539Z,96466.75
2023-03-05T01:01:41.887Z,96461.50
2023-03-05T01:04:10.640Z,96459.59
2023-03-05T01:06:42.748Z,96461.03
2023-03-05T01:09:11.323Z,96453.06
2023-03-05T01:11:41.422Z,96454.13
2023-03-05T01:14:09.764Z,96450.09
2023-03-05T01:16:38.172Z,96441.28
2023-03-05T01:19:06.521Z,96435.69
2023-03-05T01:21:35.861Z,96430.34
2023-03-05T01:24:04.869Z,96431.66
2023-03-05T01:26:33.345Z,96431.19
2023-03-05T01:29:03.266Z,96430.97
2023-03-05T01:31:31.979Z,96433.09
2023-03-05T01:34:00.959Z,96428.47
2023-03-05T01:36:29.287Z,96429.53
2023-03-05T01:38:57.790Z,96429.41
2023-03-05T01:41:26.835Z,96417.50
2023-03-05T01:43:55.372Z,96419.50
2023-03-05T01:46:34.905Z,96416.41
2023-03-05T01:49:09.199Z,96413.56
2023-03-05T01:51:43.002Z,96406.31
2023-03-05T01:54:14.559Z,96408.91
2023-03-05T01:56:44.826Z,96398.47
2023-03-05T01:59:15.045Z,96396.44
2023-03-05T02:01:47.203Z,96395.34
2023-03-05T02:04:18.428Z,96397.97
2023-03-05T02:06:48.055Z,96398.66
2023-03-05T02:09:16.511Z,96395.06
2023-03-05T02:11:45.196Z,96388.66
2023-03-05T02:14:13.918Z,96385.06
2023-03-05T02:16:43.846Z,96380.22
2023-03-05T02:19:13.656Z,96384.50
2023-03-05T02:21:45.331Z,96375.94
2023-03-05T02:24:15.317Z,96376.91
2023-03-05T02:26:44.884Z,96374.84
2023-03-05T02:29:19.771Z,96365.94
2023-03-05T02:31:48.148Z,96372.97
2023-03-05T02:34:16.458Z,96358.22
2023-03-05T02:36:46.771Z,96355.72
2023-03-05T02:39:15.087Z,96360.00
2023-03-05T02:41:43.514Z,96355.72
2023-03-05T02:44:12.022Z,96350.38
2023-03-05T02:46:40.422Z,96346.94
2023-03-05T02:49:08.758Z,96343.59
2023-03-05T02:51:37.186Z,96343.84
2023-03-05T02:54:07.010Z,96346.84
2023-03-05T02:56:35.502Z,96354.94
2023-03-05T02:59:03.894Z,96343.38
2023-03-05T03:01:32.268Z,96346.47
2023-03-05T03:04:00.725Z,96345.25
2023-03-05T03:06:29.174Z,96345.00
2023-03-05T03:08:57.477Z,96340.47
2023-03-05T03:11:27.196Z,96338.81
2023-03-05T03:13:55.544Z,96342.97
2023-03-05T03:16:35.271Z,96335.13
2023-03-05T03:19:07.444Z,96331.53
2023-03-05T03:21:35.770Z,96327.28
2023-03-05T03:24:04.258Z,96328.09
2023-03-05T03:26:33.996Z,96328.09
2023-03-05T03:29:02.340Z,96321.19
2023-03-05T03:31:30.677Z,96316.81
2023-03-05T03:33:59.322Z,96318.47
2023-03-05T03:36:27.681Z,96323.00
2023-03-05T03:38:55.938Z,96316.22
2023-03-05T03:41:24.442Z,96317.44
2023-03-05T03:43:54.150Z,96315.53
2023-03-05T03:46:22.509Z,96311.13
2023-03-05T03:48:51.705Z,96297.91
2023-03-05T03:51:20.053Z,96300.53
2023-03-05T03:53:48.398Z,96299.84
2023-03-05T03:56:16.762Z,96299.84
2023-03-05T03:58:45.220Z,96298.88
2023-03-05T04:01:14.897Z,96297.09
2023-03-05T04:03:43.317Z,96290.78
2023-03-05T04:06:11.702Z,96290.78
2023-03-05T04:08:40.227Z,96290.78
2023-03-05T04:11:08.565Z,96286.38
2023-03-05T04:13:36.894Z,96294.91
2023-03-05T04:16:05.732Z,96294.09
2023-03-05T04:18:35.451Z,96281.00
2023-03-05T04:21:03.778Z,96281.25
2023-03-05T04:23:32.237Z,96283.03
2023-03-05T04:26:00.903Z,96275.06
2023-03-05T04:28:29.438Z,96267.94
2023-03-05T04:30:57.813Z,96266.25
2023-03-05T04:33:26.513Z,96267.09
2023-03-05T04:35:56.281Z,96262.81
2023-03-05T04:38:24.587Z,96268.03
2023-03-05T04:40:53.095Z,96269.72
2023-03-05T04:43:21.430Z,96270.53
2023-03-05T04:45:49.829Z,96262.56
2023-03-05T04:48:18.948Z,96261.72
2023-03-05T04:50:47.502Z,96263.22
2023-03-05T04:53:17.366Z,96256.19
2023-03-05T04:55:45.961Z,96249.16
2023-03-05T04:58:14.300Z,96245.47
2023-03-05T05:00:42.911Z,96246.19
2023-03-05T05:03:11.314Z,96245.72
2023-03-05T05:05:39.851Z,96247.75
2023-03-05T05:08:08.216Z,96239.91
2023-03-05T05:10:39.604Z,96243.34
2023-03-05T05:13:08.066Z,96250.06
2023-03-05T05:15:36.389Z,96245.59
2023-03-05T05:18:04.921Z,96235.53
2023-03-05T05:20:33.249Z,96242.66
2023-03-05T05:23:01.585Z,96241.94
2023-03-05T05:25:29.993Z,96241.09
2023-03-05T05:27:59.669Z,96238.75
2023-03-05T05:30:27.996Z,96240.78
2023-03-05T05:32:56.326Z,96246.97
2023-03-05T05:35:24.892Z,96248.88
2023-03-05T05:37:53.336Z,96244.16
2023-03-05T05:40:21.833Z,96248.22
2023-03-05T05:42:50.150Z,96248.09
2023-03-05T05:45:20.206Z,96249.06
2023-03-05T05:47:48.722Z,96248.47
2023-03-05T05:50:17.331Z,96250.13
2023-03-05T05:52:45.627Z,96252.03
2023-03-05T05:55:14.436Z,96253.44
2023-03-05T05:57:42.725Z,96258.66
2023-03-05T06:00:14.965Z,96258.31
2023-03-05T06:02:45.045Z,96249.63
2023-03-05T06:05:15.970Z,96260.66
2023-03-05T06:07:44.696Z,96258.91
2023-03-05T06:10:13.661Z,96261.88
2023-03-05T06:12:42.284Z,96255.94
2023-03-05T06:15:11.220Z,96254.53
2023-03-05T06:17:39.686Z,96256.56
2023-03-05T06:20:10.818Z,96256.69
2023-03-05T06:22:39.894Z,96259.28
2023-03-05T06:25:10.185Z,96253.94
2023-03-05T06:27:39.542Z,96257.03
2023-03-05T06:30:09.291Z,96256.56
2023-03-05T06:32:37.801Z,96258.47
2023-03-05T06:35:07.002Z,96256.09
2023-03-05T06:37:36.724Z,96258.38
2023-03-05T06:40:07.744Z,96254.34
2023-03-05T06:42:36.098Z,96248.44
2023-03-05T06:45:05.198Z,96254.25
2023-03-05T06:47:33.607Z,96249.94
2023-03-05T06:50:01.974Z,96255.66
2023-03-05T06:52:30.362Z,96254.69
2023-03-05T06:55:00.385Z,96252.78
2023-03-05T06:57:28.787Z,96254.22
2023-03-05T06:59:57.203Z,96255.75
2023-03-05T07:02:25.675Z,96249.53
2023-03-05T07:04:54.078Z,96248.09
2023-03-05T07:07:22.672Z,96245.09
2023-03-05T07:09:53.195Z,96247.47
2023-03-05T07:12:22.888Z,96244.63
2023-03-05T07:14:51.408Z,96242.31
2023-03-05T07:17:19.780Z,96250.50
2023-03-05T07:19:48.115Z,96244.88
2023-03-05T07:22:16.440Z,96245.47
2023-03-05T07:24:44.855Z,96239.03
2023-03-05T07:27:13.227Z,96245.78
2023-03-05T07:29:42.877Z,96247.31
2023-03-05T07:32:11.298Z,96241.69
2023-03-05T07:34:39.702Z,96248.47
2023-03-05T07:37:08.012Z,96240.59
2023-03-05T07:39:36.453Z,96241.31
2023-03-05T07:42:04.910Z,96239.16
2023-03-05T07:44:33.287Z,96237.22
2023-03-05T07:47:03.080Z,96242.22
2023-03-05T07:49:31.483Z,96241.00
2023-03-05T07:51:59.783Z,96242.66
2023-03-05T07:54:28.230Z,96234.09
2023-03-05T07:56:56.625Z,96237.41
2023-03-05T07:59:24.958Z,96241.41
2023-03-05T08:01:53.299Z,96234.16
2023-03-05T08:04:23.152Z,96236.50
2023-03-05T08:06:51.721Z,96236.41
2023-03-05T08:09:20.942Z,96235.28
2023-03-05T08:11:49.308Z,96231.84
2023-03-05T08:14:17.973Z,96233.50
2023-03-05T08:16:48.357Z,96226.34
2023-03-05T08:19:16.879Z,96220.97
2023-03-05T08:21:47.523Z,96223.19
2023-03-05T08:24:16.109Z,96222.69
2023-03-05T08:26:44.738Z,96218.84
2023-03-05T08:29:13.120Z,96221.19
2023-03-05T08:31:41.631Z,96218.31
2023-03-05T08:34:10.006Z,96205.91
2023-03-05T08:36:38.438Z,96213.38
2023-03-05T08:39:08.569Z,96207.75
2023-03-05T08:41:37.177Z,96203.91
2023-03-05T08:44:05.915Z,96211.47
2023-03-05T08:46:34.697Z,96210.28
2023-03-05T08:49:03.373Z,96205.44
2023-03-05T08:51:31.748Z,96202.44
2023-03-05T08:54:01.710Z,96205.47
2023-03-05T08:56:31.545Z,96207.97
2023-03-05T08:59:00.079Z,96199.41
2023-03-05T09:01:28.587Z,96194.97
2023-03-05T09:03:56.952Z,96197.47
2023-03-05T09:06:25.317Z,96195.81
2023-03-05T09:08:54.009Z,96188.66
2023-03-05T09:11:22.438Z,96184.81
2023-03-05T09:13:52.426Z,96184.66
2023-03-05T09:16:21.160Z,96181.22
2023-03-05T09:18:49.477Z,96183.28
2023-03-05T09:21:18.968Z,96180.16
2023-03-05T09:23:48.115Z,96177.38
2023-03-05T09:26:19.375Z,96169.38
2023-03-05T09:28:47.985Z,96166.19
2023-03-05T09:31:18.142Z,96170.88
2023-03-05T09:33:48.226Z,96170.34
2023-03-05T09:36:20.244Z,96170.75
2023-03-05T09:38:48.707Z,96164.00
2023-03-05T09:41:24.935Z,96168.69
2023-03-05T09:44:00.473Z,96165.50
2023-03-05T09:46:39.004Z,96162.75
2023-03-05T09:49:18.784Z,96158.72
2023-03-05T09:51:51.425Z,96159.97
2023-03-05T09:54:22.672Z,96154.59
2023-03-05T09:56:56.579Z,96157.59
2023-03-05T09:59:31.551Z,96160.50
2023-03-05T10:02:06.107Z,96146.81
2023-03-05T10:04:44.374Z,96153.28
2023-03-05T10:07:18.158Z,96149.66
2023-03-05T10:09:50.158Z,96145.47
2023-03-05T10:12:25.361Z,96134.56
2023-03-05T10:14:53.891Z,96146.28
2023-03-05T10:18:00.087Z,96139.63
2023-03-05T10:20:53.499Z,96138.78
2023-03-05T10:23:31.276Z,96137.66
2023-03-05T10:26:07.807Z,96127.16
2023-03-05T10:28:44.247Z,96119.41
2023-03-05T10:31:36.195Z,96125.00
2023-03-05T10:34:33.267Z,96119.34
2023-03-05T10:37:21.349Z,96111.00
2023-03-05T10:39:58.085Z,96112.75
2023-03-05T10:42:33.765Z,96109.13
2023-03-05T10:45:12.691Z,96099.84
2023-03-05T10:47:47.035Z,96104.22
2023-03-05T10:50:20.315Z,96097.25
2023-03-05T10:52:53.532Z,96096.09
2023-03-05T10:55:23.737Z,96090.59
2023-03-05T10:57:52.098Z,96085.00
2023-03-05T11:00:22.929Z,96084.38
2023-03-05T11:02:57.764Z,96075.16
2023-03-05T11:05:42.078Z,96080.47
2023-03-05T11:08:25.223Z,96069.28
2023-03-05T11:11:14.945Z,96065.31
2023-03-05T11:13:55.007Z,96063.97
2023-03-05T11:16:26.535Z,96056.44
2023-03-05T11:19:19.957Z,96049.63
2023-03-05T11:22:14.311Z,96048.06
2023-03-05T11:24:43.421Z,96044.81
2023-03-05T11:27:27.031Z,96048.19
2023-03-05T11:29:55.543Z,96038.72
2023-03-05T11:32:26.849Z,96036.28
2023-03-05T11:34:56.782Z,96025.75
2023-03-05T11:37:29.213Z,96022.47
2023-03-05T11:40:17.477Z,96027.53
2023-03-05T11:42:46.496Z,96019.88
2023-03-05T11:45:19.919Z,96017.72
2023-03-05T11:47:50.870Z,96018.97
2023-03-05T11:50:23.416Z,96014.84
2023-03-05T11:52:57.080Z,96004.94
2023-03-05T11:55:29.723Z,95998.47
2023-03-05T11:58:12.329Z,95999.06
2023-03-05T12:00:45.131Z,96000.75
2023-03-05T12:03:17.349Z,95991.47
2023-03-05T12:05:49.998Z,95990.31
2023-03-05T12:08:25.604Z,95989.78
2023-03-05T12:10:54.325Z,95982.72
2023-03-05T12:13:29.990Z,95980.31
2023-03-05T12:16:09.795Z,95971.44
2023-03-05T12:18:47.388Z,95970.03
2023-03-05T12:21:26.144Z,95961.38
2023-03-05T12:24:01.480Z,95958.28
2023-03-05T12:26:56.277Z,95952.72
2023-03-05T12:29:30.802Z,95952.56
2023-03-05T12:32:00.974Z,95946.31
2023-03-05T12:34:48.333Z,95942.72
2023-03-05T12:37:50.260Z,95940.25
2023-03-05T12:40:25.259Z,95930.88
2023-03-05T12:42:55.832Z,95932.50
2023-03-05T12:45:30.676Z,95930.16
2023-03-05T12:48:50.934Z,95923.13
2023-03-05T12:51:34.763Z,95926.88
2023-03-05T12:54:31.267Z,95921.63
2023-03-05T12:57:02.510Z,95919.00
2023-03-05T12:59:43.514Z,95914.09
2023-03-05T13:02:32.648Z,95917.41
2023-03-05T13:05:06.258Z,95907.69
2023-03-05T13:07:34.959Z,95905.75
2023-03-05T13:10:03.356Z,95910.84
2023-03-05T13:12:33.441Z,95905.91
2023-03-05T13:15:04.462Z,95900.00
2023-03-05T13:17:39.201Z,95899.81
2023-03-05T13:20:33.867Z,95893.88
2023-03-05T13:23:12.045Z,95895.84
2023-03-05T13:25:40.385Z,95897.50
2023-03-05T13:28:14.103Z,95889.63
2023-03-05T13:30:46.716Z,95896.50
2023-03-05T13:33:19.097Z,95888.47
2023-03-05T13:35:48.698Z,95887.50
2023-03-05T13:38:27.764Z,95886.84
2023-03-05T13:41:20.580Z,95887.44
2023-03-05T13:43:52.360Z,95871.47
2023-03-05T13:46:33.340Z,95873.97
2023-03-05T13:49:22.218Z,95869.03
2023-03-05T13:51:51.821Z,95867.94
2023-03-05T13:54:20.755Z,95868.38
2023-03-05T13:56:58.089Z,95863.78
2023-03-05T13:59:29.564Z,95866.25
2023-03-05T14:02:00.243Z,95856.22
2023-03-05T14:04:30.186Z,95861.13
2023-03-05T14:07:01.409Z,95857.88
2023-03-05T14:09:32.288Z,95858.03
2023-03-05T14:12:03.678Z,95858.31
2023-03-05T14:14:37.544Z,95852.16
2023-03-05T14:17:33.446Z,95854.13
2023-03-05T14:20:33.003Z,95852.16
2023-03-05T14:23:03.369Z,95852.69
2023-03-05T14:25:38.426Z,95851.22
2023-03-05T14:28:18.076Z,95846.16
2023-03-05T14:30:48.849Z,95845.88
2023-03-05T14:33:24.064Z,95842.28
2023-03-05T14:35:53.922Z,95843.91
2023-03-05T14:38:26.228Z,95839.31
2023-03-05T14:40:55.000Z,95836.53
2023-03-05T14:43:23.489Z,95836.38
2023-03-05T14:45:53.510Z,95832.72
2023-03-05T14:48:21.867Z,95840.41
2023-03-05T14:50:56.308Z,95838.09
2023-03-05T14:53:27.781Z,95835.31
2023-03-05T14:55:57.304Z,95829.38
2023-03-05T14:58:27.516Z,95831.81
2023-03-05T15:00:57.878Z,95831.75
2023-03-05T15:03:27.954Z,95823.50
2023-03-05T15:05:59.203Z,95826.81
2023-03-05T15:08:29.718Z,95825.69
2023-03-05T15:10:58.350Z,95825.84
2023-03-05T15:13:27.179Z,95824.50
2023-03-05T15:15:57.387Z,95818.06
2023-03-05T15:18:25.890Z,95822.94
2023-03-05T15:20:54.926Z,95823.28
2023-03-05T15:23:23.363Z,95819.50
2023-03-05T15:25:51.754Z,95817.25
2023-03-05T15:28:20.445Z,95819.03
2023-03-05T15:30:49.051Z,95808.03
2023-03-05T15:33:18.951Z,95806.66
2023-03-05T15:35:47.515Z,95807.00
2023-03-05T15:38:16.409Z,95808.78
2023-03-05T15:40:45.980Z,95813.81
2023-03-05T15:43:15.059Z,95801.16
2023-03-05T15:45:43.787Z,95802.56
2023-03-05T15:48:12.408Z,95801.56
2023-03-05T15:50:43.708Z,95795.38
2023-03-05T15:53:16.246Z,95803.84
2023-03-05T15:55:46.306Z,95803.94
2023-03-05T15:58:16.602Z,95803.72
2023-03-05T16:00:47.368Z,95801.75
2023-03-05T16:03:16.073Z,95791.13
2023-03-05T16:05:46.063Z,95799.13
2023-03-05T16:08:14.856Z,95799.97
2023-03-05T16:10:43.652Z,95799.81
2023-03-05T16:13:16.569Z,95796.38
2023-03-05T16:15:47.153Z,95795.69
2023-03-05T16:18:18.751Z,95797.66
2023-03-05T16:20:48.870Z,95803.81
2023-03-05T16:23:18.526Z,95800.50
2023-03-05T16:25:46.993Z,95799.84
2023-03-05T16:28:15.573Z,95792.94
2023-03-05T16:30:44.477Z,95796.38
2023-03-05T16:33:12.963Z,95802.78
2023-03-05T16:35:41.351Z,95796.16
2023-03-05T16:38:11.211Z,95801.19
2023-03-05T16:41:06.347Z,95795.28
2023-03-05T16:43:28.444Z,95791.81
2023-03-05T16:45:56.809Z,95797.91
2023-03-05T16:48:25.107Z,95788.06
2023-03-05T16:50:53.522Z,95791.22
2023-03-05T16:53:23.269Z,95786.50
2023-03-05T16:55:51.595Z,95784.56
2023-03-05T16:58:19.962Z,95787.03
2023-03-05T17:00:48.963Z,95776.53
2023-03-05T17:03:17.373Z,95783.88
2023-03-05T17:05:45.780Z,95784.03
2023-03-05T17:08:14.086Z,95780.88
2023-03-05T17:10:44.746Z,95776.91
2023-03-05T17:13:13.113Z,95778.53
2023-03-05T17:18:14.670Z,95779.06
2023-03-05T17:20:43.023Z,95779.06
2023-03-05T17:23:11.347Z,95779.06
2023-03-05T17:25:39.720Z,95786.78
2023-03-05T17:28:10.103Z,95782.34
2023-03-05T17:30:38.464Z,95788.47
2023-03-05T17:33:07.792Z,95791.22
2023-03-05T17:35:36.261Z,95788.28
2023-03-05T17:38:05.610Z,95782.88
2023-03-05T17:40:34.386Z,95780.59
2023-03-05T17:43:03.127Z,95783.34
2023-03-05T17:45:35.329Z,95785.16
2023-03-05T17:48:08.377Z,95789.56
2023-03-05T17:50:37.845Z,95782.53
2023-03-05T17:53:06.347Z,95790.56
2023-03-05T17:55:34.764Z,95783.78
2023-03-05T17:58:03.161Z,95784.78
2023-03-05T18:00:36.783Z,95782.16
2023-03-05T18:03:06.148Z,95780.50
2023-03-05T18:05:34.524Z,95791.97
2023-03-05T18:08:05.426Z,95788.53
2023-03-05T18:10:34.160Z,95773.75
2023-03-05T18:13:02.576Z,95771.28
2023-03-05T18:15:32.332Z,95777.50
2023-03-05T18:18:01.549Z,95776.53
2023-03-05T18:20:32.488Z,95782.75
2023-03-05T18:23:02.008Z,95775.72
2023-03-05T18:25:31.826Z,95774.06
2023-03-05T18:28:01.081Z,95770.59
2023-03-05T18:30:30.539Z,95769.13
2023-03-05T18:33:00.974Z,95772.69
2023-03-05T18:35:30.145Z,95764.16
2023-03-05T18:37:59.087Z,95765.97
2023-03-05T18:40:32.474Z,95764.34
2023-03-05T18:43:01.783Z,95756.47
2023-03-05T18:45:30.886Z,95761.72
2023-03-05T18:48:00.878Z,95757.44
2023-03-05T18:50:30.659Z,95756.59
2023-03-05T18:52:59.058Z,95760.19
2023-03-05T18:55:29.485Z,95752.47
2023-03-05T18:57:58.568Z,95748.88
2023-03-05T19:00:28.698Z,95745.59
2023-03-05T19:02:58.032Z,95750.03
2023-03-05T19:05:27.989Z,95750.53
2023-03-05T19:07:56.373Z,95743.63
2023-03-05T19:10:24.803Z,95739.34
2023-03-05T19:13:41.008Z,95744.78
2023-03-05T19:16:12.577Z,95740.34
2023-03-05T19:19:05.629Z,95741.16
2023-03-05T19:21:35.344Z,95749.16
2023-03-05T19:24:03.681Z,95739.66
2023-03-05T19:26:32.253Z,95743.09
2023-03-05T19:29:02.086Z,95744.78
2023-03-05T19:31:30.674Z,95738.84
2023-03-05T19:33:59.145Z,95743.25
2023-03-05T19:36:27.489Z,95740.63
2023-03-05T19:38:57.432Z,95738.69
2023-03-05T19:41:27.692Z,95735.25
2023-03-05T19:43:56.237Z,95730.00
2023-03-05T19:46:24.838Z,95731.81
2023-03-05T19:48:53.428Z,95721.59
2023-03-05T19:51:25.275Z,95714.72
2023-03-05T19:53:54.077Z,95729.59
2023-03-05T19:56:30.218Z,95724.53
2023-03-05T19:58:59.013Z,95717.78
2023-03-05T20:01:28.355Z,95716.16
2023-03-05T20:03:58.923Z,95718.63
2023-03-05T20:06:29.476Z,95712.53
2023-03-05T20:08:58.359Z,95717.09
2023-03-05T20:11:29.303Z,95713.66
2023-03-05T20:13:58.166Z,95709.56
2023-03-05T20:16:29.689Z,95713.00
2023-03-05T20:19:00.316Z,95706.94
2023-03-05T20:21:31.633Z,95714.81
2023-03-05T20:24:03.959Z,95713.00
2023-03-05T20:26:35.627Z,95704.47
2023-03-05T20:29:04.939Z,95701.03
2023-03-05T20:31:36.796Z,95702.66
2023-03-05T20:34:06.361Z,95703.47
2023-03-05T20:36:35.578Z,95696.59
2023-03-05T20:39:04.358Z,95694.13
2023-03-05T20:41:35.429Z,95697.56
2023-03-05T20:44:04.848Z,95696.59
2023-03-05T20:46:35.498Z,95696.59
2023-03-05T20:49:05.230Z,95696.59
2023-03-05T20:51:35.978Z,95686.25
2023-03-05T20:54:06.325Z,95688.88
2023-03-05T20:56:36.482Z,95684.44
2023-03-05T20:59:08.691Z,95678.38
2023-03-05T21:01:40.201Z,95682.50
2023-03-05T21:04:09.000Z,95684.44
2023-03-05T21:06:43.748Z,95675.75
2023-03-05T21:09:12.157Z,95682.00
2023-03-05T21:11:41.861Z,95677.72
2023-03-05T21:14:10.286Z,95677.03
2023-03-05T21:16:38.641Z,95677.84
2023-03-05T21:19:08.189Z,95675.56
2023-03-05T21:21:36.663Z,95667.31
2023-03-05T21:24:05.244Z,95665.97
2023-03-05T21:26:34.183Z,95665.97
2023-03-05T21:29:04.256Z,95658.25
2023-03-05T21:31:32.870Z,95659.22
2023-03-05T21:34:01.792Z,95656.09
2023-03-05T21:36:30.166Z,95656.69
2023-03-05T21:38:59.465Z,95649.41
2023-03-05T21:41:28.082Z,95649.72
2023-03-05T21:43:57.442Z,95639.38
2023-03-05T21:46:27.140Z,95632.66
2023-03-05T21:48:55.537Z,95633.75
2023-03-05T21:52:09.329Z,95630.31
2023-03-05T21:54:37.779Z,95633.75
2023-03-05T21:57:07.285Z,95626.06
2023-03-05T21:59:35.931Z,95623.88
2023-03-05T22:02:05.671Z,95619.63
2023-03-05T22:04:34.000Z,95613.53
2023-03-05T22:07:02.361Z,95611.22
2023-03-05T22:09:30.958Z,95609.88
2023-03-05T22:11:59.508Z,95609.03
2023-03-05T22:14:27.809Z,95607.94
2023-03-05T22:17:02.054Z,95600.75
2023-03-05T22:19:32.014Z,95597.16
2023-03-05T22:22:00.348Z,95590.41
2023-03-05T22:24:28.688Z,95596.13
2023-03-05T22:26:57.080Z,95596.41
2023-03-05T22:29:26.783Z,95588.84
2023-03-05T22:31:55.903Z,95597.16
2023-03-05T22:34:24.363Z,95586.53
2023-03-05T22:36:54.149Z,95590.78
2023-03-05T22:39:22.452Z,95584.72
2023-03-05T22:41:50.858Z,95579.63
2023-03-05T22:44:19.210Z,95589.44
2023-03-05T22:46:47.531Z,95580.75
2023-03-05T22:49:15.987Z,95581.72
2023-03-05T22:51:44.406Z,95576.47
2023-03-05T22:54:14.139Z,95582.72
2023-03-05T22:56:42.514Z,95580.91
2023-03-05T22:59:10.885Z,95576.34
2023-03-05T23:01:39.220Z,95577.31
2023-03-05T23:04:49.938Z,95571.78
2023-03-05T23:07:19.859Z,95579.22
2023-03-05T23:09:54.712Z,95572.84
2023-03-05T23:12:24.442Z,95572.84
2023-03-05T23:14:52.860Z,95572.16
2023-03-05T23:17:21.354Z,95569.41
2023-03-05T23:19:49.711Z,95566.13
2023-03-05T23:22:18.102Z,95565.25
2023-03-05T23:24:46.556Z,95558.94
2023-03-05T23:27:18.351Z,95562.34
2023-03-05T23:30:17.638Z,95559.75
2023-03-05T23:32:47.800Z,95560.56
2023-03-05T23:35:18.197Z,95558.78
2023-03-05T23:37:46.776Z,95552.88
2023-03-05T23:40:18.478Z,95556.59
2023-03-05T23:42:48.468Z,95546.94
2023-03-05T23:45:19.162Z,95552.88
2023-03-05T23:47:48.933Z,95545.69
2023-03-05T23:50:20.898Z,95547.16
2023-03-05T23:52:54.021Z,95547.31
2023-03-05T23:55:24.760Z,95544.31
2023-03-05T23:57:55.179Z,95546.44
